sensor_id;sensor_type;location;lat;lon;timestamp;temperature;humidity
871;DHT22;422;51.280;7.236;2023-04-19T00:02:25;9.90;99.90
871;DHT22;422;51.280;7.236;2023-04-19T00:04:55;9.90;99.90
871;DHT22;422;51.280;7.236;2023-04-19T00:07:22;9.90;99.90
871;DHT22;422;51.280;7.236;2023-04-19T00:09:49;9.90;99.90
871;DHT22;422;51.280;7.236;2023-04-19T00:12:16;9.90;99.90
871;DHT22;422;51.280;7.236;2023-04-19T00:14:44;9.90;99.90
871;DHT22;422;51.280;7.236;2023-04-19T00:17:11;9.90;99.90
871;DHT22;422;51.280;7.236;2023-04-19T00:19:38;9.90;99.90
871;DHT22;422;51.280;7.236;2023-04-19T00:22:07;9.90;99.90
871;DHT22;422;51.280;7.236;2023-04-19T00:24:34;9.90;99.90
871;DHT22;422;51.280;7.236;2023-04-19T00:27:01;9.90;99.90
871;DHT22;422;51.280;7.236;2023-04-19T00:29:29;9.90;99.90
871;DHT22;422;51.280;7.236;2023-04-19T00:31:56;9.90;99.90
871;DHT22;422;51.280;7.236;2023-04-19T00:34:23;9.90;99.90
871;DHT22;422;51.280;7.236;2023-04-19T00:36:50;9.90;99.90
871;DHT22;422;51.280;7.236;2023-04-19T00:39:19;9.90;99.90
871;DHT22;422;51.280;7.236;2023-04-19T00:41:46;9.90;99.90
871;DHT22;422;51.280;7.236;2023-04-19T00:44:13;9.90;99.90
871;DHT22;422;51.280;7.236;2023-04-19T00:46:41;9.90;99.90
871;DHT22;422;51.280;7.236;2023-04-19T00:49:09;9.90;99.90
871;DHT22;422;51.280;7.236;2023-04-19T00:51:36;9.90;1.00
871;DHT22;422;51.280;7.236;2023-04-19T00:54:04;9.90;1.00
871;DHT22;422;51.280;7.236;2023-04-19T00:56:34;9.90;1.00
871;DHT22;422;51.280;7.236;2023-04-19T00:59:01;9.90;1.00
871;DHT22;422;51.280;7.236;2023-04-19T01:01:28;9.90;1.00
871;DHT22;422;51.280;7.236;2023-04-19T01:03:57;9.90;1.00
871;DHT22;422;51.280;7.236;2023-04-19T01:06:25;9.90;1.00
871;DHT22;422;51.280;7.236;2023-04-19T01:08:54;9.90;1.00
871;DHT22;422;51.280;7.236;2023-04-19T01:11:22;9.90;1.00
871;DHT22;422;51.280;7.236;2023-04-19T01:13:51;9.80;1.00
871;DHT22;422;51.280;7.236;2023-04-19T01:16:18;9.80;1.00
871;DHT22;422;51.280;7.236;2023-04-19T01:18:45;9.80;1.00
871;DHT22;422;51.280;7.236;2023-04-19T01:21:12;9.80;1.00
871;DHT22;422;51.280;7.236;2023-04-19T01:23:41;9.70;1.00
871;DHT22;422;51.280;7.236;2023-04-19T01:26:08;9.70;1.00
871;DHT22;422;51.280;7.236;2023-04-19T01:28:36;9.70;1.00
871;DHT22;422;51.280;7.236;2023-04-19T01:31:03;9.70;1.00
871;DHT22;422;51.280;7.236;2023-04-19T01:33:30;9.70;1.00
871;DHT22;422;51.280;7.236;2023-04-19T01:35:57;9.60;1.00
871;DHT22;422;51.280;7.236;2023-04-19T01:38:24;9.50;1.00
871;DHT22;422;51.280;7.236;2023-04-19T01:40:53;9.50;1.00
871;DHT22;422;51.280;7.236;2023-04-19T01:43:21;9.50;1.00
871;DHT22;422;51.280;7.236;2023-04-19T01:45:49;9.50;1.00
871;DHT22;422;51.280;7.236;2023-04-19T01:48:16;9.40;1.00
871;DHT22;422;51.280;7.236;2023-04-19T01:50:43;9.50;1.00
871;DHT22;422;51.280;7.236;2023-04-19T01:53:10;9.50;13.20
871;DHT22;422;51.280;7.236;2023-04-19T01:55:38;9.50;7.30
871;DHT22;422;51.280;7.236;2023-04-19T01:58:07;9.50;1.00
871;DHT22;422;51.280;7.236;2023-04-19T02:00:34;9.60;1.00
871;DHT22;422;51.280;7.236;2023-04-19T02:03:01;9.70;1.00
871;DHT22;422;51.280;7.236;2023-04-19T02:05:28;9.70;1.00
871;DHT22;422;51.280;7.236;2023-04-19T02:07:55;9.70;1.00
871;DHT22;422;51.280;7.236;2023-04-19T02:10:23;9.70;1.00
871;DHT22;422;51.280;7.236;2023-04-19T02:12:50;9.70;1.00
871;DHT22;422;51.280;7.236;2023-04-19T02:15:18;9.70;1.00
871;DHT22;422;51.280;7.236;2023-04-19T02:17:46;9.70;1.00
871;DHT22;422;51.280;7.236;2023-04-19T02:20:13;9.70;1.00
871;DHT22;422;51.280;7.236;2023-04-19T02:22:40;9.80;1.00
871;DHT22;422;51.280;7.236;2023-04-19T02:25:08;9.80;1.00
871;DHT22;422;51.280;7.236;2023-04-19T02:27:35;9.70;1.00
871;DHT22;422;51.280;7.236;2023-04-19T02:30:03;9.70;1.00
871;DHT22;422;51.280;7.236;2023-04-19T02:32:32;9.70;1.00
871;DHT22;422;51.280;7.236;2023-04-19T02:34:59;9.70;1.00
871;DHT22;422;51.280;7.236;2023-04-19T02:37:27;9.70;1.00
871;DHT22;422;51.280;7.236;2023-04-19T02:39:54;9.70;1.00
871;DHT22;422;51.280;7.236;2023-04-19T02:42:21;9.70;1.00
871;DHT22;422;51.280;7.236;2023-04-19T02:44:48;9.70;1.00
871;DHT22;422;51.280;7.236;2023-04-19T02:47:15;9.70;1.00
871;DHT22;422;51.280;7.236;2023-04-19T02:49:44;9.70;1.00
871;DHT22;422;51.280;7.236;2023-04-19T02:52:11;9.70;1.00
871;DHT22;422;51.280;7.236;2023-04-19T02:54:38;9.70;1.00
871;DHT22;422;51.280;7.236;2023-04-19T02:57:06;9.70;1.00
871;DHT22;422;51.280;7.236;2023-04-19T02:59:33;9.70;1.00
871;DHT22;422;51.280;7.236;2023-04-19T03:02:00;9.70;1.00
871;DHT22;422;51.280;7.236;2023-04-19T03:04:36;9.70;1.00
871;DHT22;422;51.280;7.236;2023-04-19T03:07:11;9.70;1.00
871;DHT22;422;51.280;7.236;2023-04-19T03:09:38;9.70;1.00
871;DHT22;422;51.280;7.236;2023-04-19T03:12:08;9.70;1.00
871;DHT22;422;51.280;7.236;2023-04-19T03:14:41;9.70;1.00
871;DHT22;422;51.280;7.236;2023-04-19T03:17:08;9.70;1.00
871;DHT22;422;51.280;7.236;2023-04-19T03:19:38;9.70;1.00
871;DHT22;422;51.280;7.236;2023-04-19T03:22:05;9.60;1.00
871;DHT22;422;51.280;7.236;2023-04-19T03:24:37;9.60;1.00
871;DHT22;422;51.280;7.236;2023-04-19T03:27:22;9.60;1.00
871;DHT22;422;51.280;7.236;2023-04-19T03:30:00;9.60;1.00
871;DHT22;422;51.280;7.236;2023-04-19T03:32:27;9.60;1.00
871;DHT22;422;51.280;7.236;2023-04-19T03:34:54;9.60;1.00
871;DHT22;422;51.280;7.236;2023-04-19T03:37:21;9.70;1.00
871;DHT22;422;51.280;7.236;2023-04-19T03:39:54;9.60;1.00
871;DHT22;422;51.280;7.236;2023-04-19T03:42:21;9.60;1.00
871;DHT22;422;51.280;7.236;2023-04-19T03:44:52;9.60;1.00
871;DHT22;422;51.280;7.236;2023-04-19T03:47:20;9.60;1.00
871;DHT22;422;51.280;7.236;2023-04-19T03:49:47;9.60;1.00
871;DHT22;422;51.280;7.236;2023-04-19T03:52:18;9.60;1.00
871;DHT22;422;51.280;7.236;2023-04-19T03:54:45;9.60;1.00
871;DHT22;422;51.280;7.236;2023-04-19T03:57:15;9.60;1.00
871;DHT22;422;51.280;7.236;2023-04-19T03:59:42;9.60;1.00
871;DHT22;422;51.280;7.236;2023-04-19T04:02:10;9.50;99.90
871;DHT22;422;51.280;7.236;2023-04-19T04:04:37;9.50;99.90
871;DHT22;422;51.280;7.236;2023-04-19T04:07:04;9.60;99.90
871;DHT22;422;51.280;7.236;2023-04-19T04:09:31;9.50;99.90
871;DHT22;422;51.280;7.236;2023-04-19T04:11:59;9.50;99.90
871;DHT22;422;51.280;7.236;2023-04-19T04:14:27;9.40;99.90
871;DHT22;422;51.280;7.236;2023-04-19T04:16:55;9.40;99.90
871;DHT22;422;51.280;7.236;2023-04-19T04:19:22;9.40;99.90
871;DHT22;422;51.280;7.236;2023-04-19T04:21:49;9.30;99.90
871;DHT22;422;51.280;7.236;2023-04-19T04:24:16;9.30;99.90
871;DHT22;422;51.280;7.236;2023-04-19T04:26:44;9.30;99.90
871;DHT22;422;51.280;7.236;2023-04-19T04:29:14;9.30;99.90
871;DHT22;422;51.280;7.236;2023-04-19T04:31:43;9.30;99.90
871;DHT22;422;51.280;7.236;2023-04-19T04:34:10;9.30;99.90
871;DHT22;422;51.280;7.236;2023-04-19T04:36:37;9.30;99.90
871;DHT22;422;51.280;7.236;2023-04-19T04:39:06;9.30;99.90
871;DHT22;422;51.280;7.236;2023-04-19T04:41:36;9.30;99.90
871;DHT22;422;51.280;7.236;2023-04-19T04:44:05;9.20;99.90
871;DHT22;422;51.280;7.236;2023-04-19T04:46:33;9.20;99.90
871;DHT22;422;51.280;7.236;2023-04-19T04:49:02;9.20;99.90
871;DHT22;422;51.280;7.236;2023-04-19T04:51:29;9.20;99.90
871;DHT22;422;51.280;7.236;2023-04-19T04:53:57;9.20;99.90
871;DHT22;422;51.280;7.236;2023-04-19T04:56:24;9.20;99.90
871;DHT22;422;51.280;7.236;2023-04-19T04:58:52;9.10;99.90
871;DHT22;422;51.280;7.236;2023-04-19T05:01:19;9.10;99.90
871;DHT22;422;51.280;7.236;2023-04-19T05:03:47;9.10;99.90
871;DHT22;422;51.280;7.236;2023-04-19T05:06:16;9.10;99.90
871;DHT22;422;51.280;7.236;2023-04-19T05:08:43;9.10;99.90
871;DHT22;422;51.280;7.236;2023-04-19T05:11:10;9.10;99.90
871;DHT22;422;51.280;7.236;2023-04-19T05:13:38;9.10;99.90
871;DHT22;422;51.280;7.236;2023-04-19T05:16:05;9.10;99.90
871;DHT22;422;51.280;7.236;2023-04-19T05:18:33;9.10;99.90
871;DHT22;422;51.280;7.236;2023-04-19T05:21:00;9.20;99.90
871;DHT22;422;51.280;7.236;2023-04-19T05:23:29;9.30;99.90
871;DHT22;422;51.280;7.236;2023-04-19T05:25:56;9.30;99.90
871;DHT22;422;51.280;7.236;2023-04-19T05:28:23;9.30;99.90
871;DHT22;422;51.280;7.236;2023-04-19T05:30:51;9.30;99.90
871;DHT22;422;51.280;7.236;2023-04-19T05:33:18;9.30;99.90
871;DHT22;422;51.280;7.236;2023-04-19T05:35:45;9.40;99.90
871;DHT22;422;51.280;7.236;2023-04-19T05:38:13;9.40;99.90
871;DHT22;422;51.280;7.236;2023-04-19T05:40:41;9.40;99.90
871;DHT22;422;51.280;7.236;2023-04-19T05:43:08;9.50;99.90
871;DHT22;422;51.280;7.236;2023-04-19T05:45:36;9.60;99.90
871;DHT22;422;51.280;7.236;2023-04-19T05:48:04;9.60;99.90
871;DHT22;422;51.280;7.236;2023-04-19T05:50:31;9.60;99.90
871;DHT22;422;51.280;7.236;2023-04-19T05:52:58;9.60;99.90
871;DHT22;422;51.280;7.236;2023-04-19T05:55:26;9.50;99.90
871;DHT22;422;51.280;7.236;2023-04-19T05:57:55;9.60;99.90
871;DHT22;422;51.280;7.236;2023-04-19T06:00:22;9.50;99.90
871;DHT22;422;51.280;7.236;2023-04-19T06:02:49;9.40;99.90
871;DHT22;422;51.280;7.236;2023-04-19T06:05:16;9.40;99.90
871;DHT22;422;51.280;7.236;2023-04-19T06:07:44;9.40;99.90
871;DHT22;422;51.280;7.236;2023-04-19T06:10:11;9.30;99.90
871;DHT22;422;51.280;7.236;2023-04-19T06:12:39;9.30;99.90
871;DHT22;422;51.280;7.236;2023-04-19T06:15:08;9.40;99.90
871;DHT22;422;51.280;7.236;2023-04-19T06:17:36;9.30;99.90
871;DHT22;422;51.280;7.236;2023-04-19T06:20:04;9.20;99.90
871;DHT22;422;51.280;7.236;2023-04-19T06:22:33;9.20;99.90
871;DHT22;422;51.280;7.236;2023-04-19T06:25:01;9.00;99.90
871;DHT22;422;51.280;7.236;2023-04-19T06:27:29;9.00;99.90
871;DHT22;422;51.280;7.236;2023-04-19T06:29:56;9.00;99.90
871;DHT22;422;51.280;7.236;2023-04-19T06:32:27;9.00;99.90
871;DHT22;422;51.280;7.236;2023-04-19T06:34:56;9.00;99.90
871;DHT22;422;51.280;7.236;2023-04-19T06:37:24;9.00;99.90
871;DHT22;422;51.280;7.236;2023-04-19T06:39:51;9.00;99.90
871;DHT22;422;51.280;7.236;2023-04-19T06:42:18;9.20;99.90
871;DHT22;422;51.280;7.236;2023-04-19T06:44:46;9.30;99.90
871;DHT22;422;51.280;7.236;2023-04-19T06:47:13;9.60;99.90
871;DHT22;422;51.280;7.236;2023-04-19T06:49:42;10.10;99.90
871;DHT22;422;51.280;7.236;2023-04-19T06:52:09;10.50;99.90
871;DHT22;422;51.280;7.236;2023-04-19T06:54:36;10.80;99.90
871;DHT22;422;51.280;7.236;2023-04-19T06:57:04;11.10;99.90
871;DHT22;422;51.280;7.236;2023-04-19T06:59:31;11.30;99.90
871;DHT22;422;51.280;7.236;2023-04-19T07:01:58;11.40;99.90
871;DHT22;422;51.280;7.236;2023-04-19T07:04:25;11.80;99.90
871;DHT22;422;51.280;7.236;2023-04-19T07:06:54;12.00;99.90
871;DHT22;422;51.280;7.236;2023-04-19T07:09:21;12.30;99.90
871;DHT22;422;51.280;7.236;2023-04-19T07:11:49;12.40;99.90
871;DHT22;422;51.280;7.236;2023-04-19T07:14:16;12.00;99.90
871;DHT22;422;51.280;7.236;2023-04-19T07:16:44;12.00;99.90
871;DHT22;422;51.280;7.236;2023-04-19T07:19:12;11.90;99.90
871;DHT22;422;51.280;7.236;2023-04-19T07:21:39;12.10;99.90
871;DHT22;422;51.280;7.236;2023-04-19T07:24:08;12.40;99.90
871;DHT22;422;51.280;7.236;2023-04-19T07:26:35;12.80;99.90
871;DHT22;422;51.280;7.236;2023-04-19T07:29:03;12.60;99.90
871;DHT22;422;51.280;7.236;2023-04-19T07:31:30;12.60;99.90
871;DHT22;422;51.280;7.236;2023-04-19T07:33:57;12.80;99.90
871;DHT22;422;51.280;7.236;2023-04-19T07:36:25;13.00;99.90
871;DHT22;422;51.280;7.236;2023-04-19T07:38:52;13.10;99.90
871;DHT22;422;51.280;7.236;2023-04-19T07:41:21;13.10;99.90
871;DHT22;422;51.280;7.236;2023-04-19T07:43:48;13.00;99.90
871;DHT22;422;51.280;7.236;2023-04-19T07:46:15;13.20;99.90
871;DHT22;422;51.280;7.236;2023-04-19T07:48:43;12.50;99.90
871;DHT22;422;51.280;7.236;2023-04-19T07:51:12;12.60;99.90
871;DHT22;422;51.280;7.236;2023-04-19T07:53:40;12.80;99.90
871;DHT22;422;51.280;7.236;2023-04-19T07:56:08;12.70;99.90
871;DHT22;422;51.280;7.236;2023-04-19T07:58:37;12.80;99.90
871;DHT22;422;51.280;7.236;2023-04-19T08:01:06;12.70;99.90
871;DHT22;422;51.280;7.236;2023-04-19T08:03:33;13.10;99.90
871;DHT22;422;51.280;7.236;2023-04-19T08:06:01;13.00;99.90
871;DHT22;422;51.280;7.236;2023-04-19T08:08:29;12.60;99.90
871;DHT22;422;51.280;7.236;2023-04-19T08:10:57;12.70;99.90
871;DHT22;422;51.280;7.236;2023-04-19T08:13:27;12.90;99.90
871;DHT22;422;51.280;7.236;2023-04-19T08:15:55;13.00;99.90
871;DHT22;422;51.280;7.236;2023-04-19T08:18:23;13.10;99.90
871;DHT22;422;51.280;7.236;2023-04-19T08:20:50;13.40;99.90
871;DHT22;422;51.280;7.236;2023-04-19T08:23:18;13.70;99.90
871;DHT22;422;51.280;7.236;2023-04-19T08:25:45;13.40;99.90
871;DHT22;422;51.280;7.236;2023-04-19T08:28:12;13.70;99.90
871;DHT22;422;51.280;7.236;2023-04-19T08:30:39;13.70;99.90
871;DHT22;422;51.280;7.236;2023-04-19T08:33:08;13.40;99.90
871;DHT22;422;51.280;7.236;2023-04-19T08:35:37;13.50;99.90
871;DHT22;422;51.280;7.236;2023-04-19T08:38:05;14.00;99.90
871;DHT22;422;51.280;7.236;2023-04-19T08:40:32;14.00;99.90
871;DHT22;422;51.280;7.236;2023-04-19T08:43:04;13.80;99.90
871;DHT22;422;51.280;7.236;2023-04-19T08:45:32;13.70;99.90
871;DHT22;422;51.280;7.236;2023-04-19T08:48:01;13.70;99.90
871;DHT22;422;51.280;7.236;2023-04-19T08:50:30;14.00;99.90
871;DHT22;422;51.280;7.236;2023-04-19T08:52:58;14.00;99.90
871;DHT22;422;51.280;7.236;2023-04-19T08:55:27;14.10;99.90
871;DHT22;422;51.280;7.236;2023-04-19T08:57:55;14.20;99.90
871;DHT22;422;51.280;7.236;2023-04-19T09:00:23;14.60;99.90
871;DHT22;422;51.280;7.236;2023-04-19T09:02:51;14.50;99.90
871;DHT22;422;51.280;7.236;2023-04-19T09:05:20;14.50;99.90
871;DHT22;422;51.280;7.236;2023-04-19T09:07:49;14.10;99.90
871;DHT22;422;51.280;7.236;2023-04-19T09:10:18;14.40;99.90
871;DHT22;422;51.280;7.236;2023-04-19T09:13:00;14.50;99.90
871;DHT22;422;51.280;7.236;2023-04-19T09:15:35;14.00;99.90
871;DHT22;422;51.280;7.236;2023-04-19T09:18:04;14.00;99.90
871;DHT22;422;51.280;7.236;2023-04-19T09:20:35;13.70;99.90
871;DHT22;422;51.280;7.236;2023-04-19T09:23:06;13.90;99.90
871;DHT22;422;51.280;7.236;2023-04-19T09:25:33;14.00;99.90
871;DHT22;422;51.280;7.236;2023-04-19T09:28:10;14.20;99.90
871;DHT22;422;51.280;7.236;2023-04-19T09:30:39;14.50;99.90
871;DHT22;422;51.280;7.236;2023-04-19T09:33:07;14.50;99.90
871;DHT22;422;51.280;7.236;2023-04-19T09:35:41;14.70;99.90
871;DHT22;422;51.280;7.236;2023-04-19T09:38:11;15.20;99.90
871;DHT22;422;51.280;7.236;2023-04-19T09:40:39;15.20;99.90
871;DHT22;422;51.280;7.236;2023-04-19T09:43:06;15.50;99.90
871;DHT22;422;51.280;7.236;2023-04-19T09:45:41;15.20;99.90
871;DHT22;422;51.280;7.236;2023-04-19T09:48:09;15.00;99.90
871;DHT22;422;51.280;7.236;2023-04-19T09:50:50;14.60;99.90
871;DHT22;422;51.280;7.236;2023-04-19T09:53:19;15.20;99.90
871;DHT22;422;51.280;7.236;2023-04-19T09:55:47;15.50;99.90
871;DHT22;422;51.280;7.236;2023-04-19T09:58:14;15.60;99.90
871;DHT22;422;51.280;7.236;2023-04-19T10:00:43;15.50;99.90
871;DHT22;422;51.280;7.236;2023-04-19T10:03:13;15.30;99.90
871;DHT22;422;51.280;7.236;2023-04-19T10:05:41;15.10;99.90
871;DHT22;422;51.280;7.236;2023-04-19T10:08:10;15.30;99.90
871;DHT22;422;51.280;7.236;2023-04-19T10:10:40;15.40;99.90
871;DHT22;422;51.280;7.236;2023-04-19T10:13:09;15.20;99.90
871;DHT22;422;51.280;7.236;2023-04-19T10:15:38;15.40;99.90
871;DHT22;422;51.280;7.236;2023-04-19T10:18:08;15.90;99.90
871;DHT22;422;51.280;7.236;2023-04-19T10:20:41;16.40;99.90
871;DHT22;422;51.280;7.236;2023-04-19T10:23:14;16.60;99.90
871;DHT22;422;51.280;7.236;2023-04-19T10:25:45;16.30;99.90
871;DHT22;422;51.280;7.236;2023-04-19T10:28:13;15.90;99.90
871;DHT22;422;51.280;7.236;2023-04-19T10:30:52;16.30;99.90
871;DHT22;422;51.280;7.236;2023-04-19T10:33:24;16.00;99.90
871;DHT22;422;51.280;7.236;2023-04-19T10:35:55;15.90;99.90
871;DHT22;422;51.280;7.236;2023-04-19T10:38:38;15.90;99.90
871;DHT22;422;51.280;7.236;2023-04-19T10:41:07;16.00;99.90
871;DHT22;422;51.280;7.236;2023-04-19T10:43:40;16.40;99.90
871;DHT22;422;51.280;7.236;2023-04-19T10:46:09;15.90;99.90
871;DHT22;422;51.280;7.236;2023-04-19T10:48:40;16.10;99.90
871;DHT22;422;51.280;7.236;2023-04-19T10:51:19;16.10;99.90
871;DHT22;422;51.280;7.236;2023-04-19T10:53:57;16.30;99.90
871;DHT22;422;51.280;7.236;2023-04-19T10:57:00;16.20;99.90
871;DHT22;422;51.280;7.236;2023-04-19T10:59:38;16.30;99.90
871;DHT22;422;51.280;7.236;2023-04-19T11:02:25;16.10;99.90
871;DHT22;422;51.280;7.236;2023-04-19T11:05:02;16.30;99.90
871;DHT22;422;51.280;7.236;2023-04-19T11:07:40;16.40;99.90
871;DHT22;422;51.280;7.236;2023-04-19T11:10:08;16.70;99.90
871;DHT22;422;51.280;7.236;2023-04-19T11:12:41;17.20;99.90
871;DHT22;422;51.280;7.236;2023-04-19T11:15:09;17.20;99.90
871;DHT22;422;51.280;7.236;2023-04-19T11:17:36;16.90;99.90
871;DHT22;422;51.280;7.236;2023-04-19T11:20:06;16.20;99.90
871;DHT22;422;51.280;7.236;2023-04-19T11:22:35;16.50;99.90
871;DHT22;422;51.280;7.236;2023-04-19T11:25:07;16.40;99.90
871;DHT22;422;51.280;7.236;2023-04-19T11:27:36;16.40;99.90
871;DHT22;422;51.280;7.236;2023-04-19T11:30:05;16.40;99.90
871;DHT22;422;51.280;7.236;2023-04-19T11:32:33;16.90;99.90
871;DHT22;422;51.280;7.236;2023-04-19T11:35:05;17.10;99.90
871;DHT22;422;51.280;7.236;2023-04-19T11:37:33;17.10;99.90
871;DHT22;422;51.280;7.236;2023-04-19T11:40:00;17.30;99.90
871;DHT22;422;51.280;7.236;2023-04-19T11:42:29;17.40;99.90
871;DHT22;422;51.280;7.236;2023-04-19T11:44:58;17.50;99.90
871;DHT22;422;51.280;7.236;2023-04-19T11:47:26;17.70;99.90
871;DHT22;422;51.280;7.236;2023-04-19T11:49:54;17.40;99.90
871;DHT22;422;51.280;7.236;2023-04-19T11:52:23;17.30;99.90
871;DHT22;422;51.280;7.236;2023-04-19T11:54:51;17.40;99.90
871;DHT22;422;51.280;7.236;2023-04-19T11:57:28;17.50;99.90
871;DHT22;422;51.280;7.236;2023-04-19T12:00:04;18.10;99.90
871;DHT22;422;51.280;7.236;2023-04-19T12:02:37;17.70;99.90
871;DHT22;422;51.280;7.236;2023-04-19T12:05:13;17.90;99.90
871;DHT22;422;51.280;7.236;2023-04-19T12:07:59;17.60;99.90
871;DHT22;422;51.280;7.236;2023-04-19T12:10:27;17.20;99.90
871;DHT22;422;51.280;7.236;2023-04-19T12:12:55;18.00;99.90
871;DHT22;422;51.280;7.236;2023-04-19T12:15:40;18.50;99.90
871;DHT22;422;51.280;7.236;2023-04-19T12:18:07;18.80;99.90
871;DHT22;422;51.280;7.236;2023-04-19T12:20:36;18.50;99.90
871;DHT22;422;51.280;7.236;2023-04-19T12:23:04;17.40;99.90
871;DHT22;422;51.280;7.236;2023-04-19T12:25:36;18.40;99.90
871;DHT22;422;51.280;7.236;2023-04-19T12:28:03;18.40;99.90
871;DHT22;422;51.280;7.236;2023-04-19T12:30:32;18.50;99.90
871;DHT22;422;51.280;7.236;2023-04-19T12:33:00;18.80;99.90
871;DHT22;422;51.280;7.236;2023-04-19T12:35:27;18.90;99.90
871;DHT22;422;51.280;7.236;2023-04-19T12:37:56;19.00;99.90
871;DHT22;422;51.280;7.236;2023-04-19T12:40:25;19.00;99.90
871;DHT22;422;51.280;7.236;2023-04-19T12:42:53;18.20;99.90
871;DHT22;422;51.280;7.236;2023-04-19T12:45:20;18.40;99.90
871;DHT22;422;51.280;7.236;2023-04-19T12:47:49;18.30;99.90
871;DHT22;422;51.280;7.236;2023-04-19T12:50:16;18.30;99.90
871;DHT22;422;51.280;7.236;2023-04-19T12:52:44;18.80;99.90
871;DHT22;422;51.280;7.236;2023-04-19T12:55:11;18.30;99.90
871;DHT22;422;51.280;7.236;2023-04-19T12:57:38;17.90;99.90
871;DHT22;422;51.280;7.236;2023-04-19T13:00:07;17.60;99.90
871;DHT22;422;51.280;7.236;2023-04-19T13:02:36;17.90;99.90
871;DHT22;422;51.280;7.236;2023-04-19T13:05:05;17.70;99.90
871;DHT22;422;51.280;7.236;2023-04-19T13:07:32;18.10;99.90
871;DHT22;422;51.280;7.236;2023-04-19T13:10:00;18.60;99.90
871;DHT22;422;51.280;7.236;2023-04-19T13:12:28;18.20;99.90
871;DHT22;422;51.280;7.236;2023-04-19T13:14:55;18.10;99.90
871;DHT22;422;51.280;7.236;2023-04-19T13:17:22;17.50;99.90
871;DHT22;422;51.280;7.236;2023-04-19T13:19:50;17.80;99.90
871;DHT22;422;51.280;7.236;2023-04-19T13:22:18;18.20;99.90
871;DHT22;422;51.280;7.236;2023-04-19T13:24:46;18.20;99.90
871;DHT22;422;51.280;7.236;2023-04-19T13:27:13;18.60;99.90
871;DHT22;422;51.280;7.236;2023-04-19T13:29:40;18.60;99.90
871;DHT22;422;51.280;7.236;2023-04-19T13:32:08;18.40;99.90
871;DHT22;422;51.280;7.236;2023-04-19T13:34:37;18.60;99.90
871;DHT22;422;51.280;7.236;2023-04-19T13:37:05;18.80;99.90
871;DHT22;422;51.280;7.236;2023-04-19T13:39:34;18.80;99.90
871;DHT22;422;51.280;7.236;2023-04-19T13:42:01;17.90;99.90
871;DHT22;422;51.280;7.236;2023-04-19T13:44:28;18.20;99.90
871;DHT22;422;51.280;7.236;2023-04-19T13:46:56;18.10;99.90
871;DHT22;422;51.280;7.236;2023-04-19T13:49:24;18.00;99.90
871;DHT22;422;51.280;7.236;2023-04-19T13:51:54;18.10;99.90
871;DHT22;422;51.280;7.236;2023-04-19T13:54:21;18.50;99.90
871;DHT22;422;51.280;7.236;2023-04-19T13:56:50;18.20;99.90
871;DHT22;422;51.280;7.236;2023-04-19T13:59:17;18.10;99.90
871;DHT22;422;51.280;7.236;2023-04-19T14:01:45;18.00;99.90
871;DHT22;422;51.280;7.236;2023-04-19T14:04:12;17.90;99.90
871;DHT22;422;51.280;7.236;2023-04-19T14:06:39;18.50;99.90
871;DHT22;422;51.280;7.236;2023-04-19T14:09:07;18.40;99.90
871;DHT22;422;51.280;7.236;2023-04-19T14:11:34;18.00;99.90
871;DHT22;422;51.280;7.236;2023-04-19T14:14:04;17.60;99.90
871;DHT22;422;51.280;7.236;2023-04-19T14:16:31;18.20;99.90
871;DHT22;422;51.280;7.236;2023-04-19T14:18:59;18.10;99.90
871;DHT22;422;51.280;7.236;2023-04-19T14:21:26;18.30;99.90
871;DHT22;422;51.280;7.236;2023-04-19T14:23:54;18.60;99.90
871;DHT22;422;51.280;7.236;2023-04-19T14:26:21;18.20;99.90
871;DHT22;422;51.280;7.236;2023-04-19T14:28:48;18.10;99.90
871;DHT22;422;51.280;7.236;2023-04-19T14:31:17;18.10;99.90
871;DHT22;422;51.280;7.236;2023-04-19T14:33:44;17.40;99.90
871;DHT22;422;51.280;7.236;2023-04-19T14:36:11;17.50;99.90
871;DHT22;422;51.280;7.236;2023-04-19T14:38:39;17.80;99.90
871;DHT22;422;51.280;7.236;2023-04-19T14:41:06;17.60;99.90
871;DHT22;422;51.280;7.236;2023-04-19T14:43:33;17.40;99.90
871;DHT22;422;51.280;7.236;2023-04-19T14:46:01;17.50;99.90
871;DHT22;422;51.280;7.236;2023-04-19T14:48:29;17.60;99.90
871;DHT22;422;51.280;7.236;2023-04-19T14:50:56;17.70;99.90
871;DHT22;422;51.280;7.236;2023-04-19T14:53:24;17.70;99.90
871;DHT22;422;51.280;7.236;2023-04-19T14:55:51;17.70;99.90
871;DHT22;422;51.280;7.236;2023-04-19T14:58:18;17.40;99.90
871;DHT22;422;51.280;7.236;2023-04-19T15:00:46;17.60;99.90
871;DHT22;422;51.280;7.236;2023-04-19T15:03:13;17.60;99.90
871;DHT22;422;51.280;7.236;2023-04-19T15:05:42;17.00;99.90
871;DHT22;422;51.280;7.236;2023-04-19T15:08:09;16.50;99.90
871;DHT22;422;51.280;7.236;2023-04-19T15:10:36;16.60;99.90
871;DHT22;422;51.280;7.236;2023-04-19T15:13:04;16.70;99.90
871;DHT22;422;51.280;7.236;2023-04-19T15:15:31;16.60;99.90
871;DHT22;422;51.280;7.236;2023-04-19T15:17:58;16.50;99.90
871;DHT22;422;51.280;7.236;2023-04-19T15:20:26;16.70;99.90
871;DHT22;422;51.280;7.236;2023-04-19T15:22:54;16.70;99.90
871;DHT22;422;51.280;7.236;2023-04-19T15:25:22;16.80;99.90
871;DHT22;422;51.280;7.236;2023-04-19T15:27:50;16.80;99.90
871;DHT22;422;51.280;7.236;2023-04-19T15:30:18;16.50;99.90
871;DHT22;422;51.280;7.236;2023-04-19T15:32:45;16.20;99.90
871;DHT22;422;51.280;7.236;2023-04-19T15:35:12;16.40;99.90
871;DHT22;422;51.280;7.236;2023-04-19T15:37:40;16.70;99.90
871;DHT22;422;51.280;7.236;2023-04-19T15:40:10;17.00;99.90
871;DHT22;422;51.280;7.236;2023-04-19T15:42:39;16.80;99.90
871;DHT22;422;51.280;7.236;2023-04-19T15:45:10;16.70;99.90
871;DHT22;422;51.280;7.236;2023-04-19T15:47:37;16.70;99.90
871;DHT22;422;51.280;7.236;2023-04-19T15:50:05;16.40;99.90
871;DHT22;422;51.280;7.236;2023-04-19T15:52:33;16.30;99.90
871;DHT22;422;51.280;7.236;2023-04-19T15:55:00;16.30;99.90
871;DHT22;422;51.280;7.236;2023-04-19T15:57:29;16.00;99.90
871;DHT22;422;51.280;7.236;2023-04-19T15:59:56;15.80;99.90
871;DHT22;422;51.280;7.236;2023-04-19T16:02:23;16.00;99.90
871;DHT22;422;51.280;7.236;2023-04-19T16:04:50;15.70;99.90
871;DHT22;422;51.280;7.236;2023-04-19T16:07:18;16.00;99.90
871;DHT22;422;51.280;7.236;2023-04-19T16:09:45;15.80;99.90
871;DHT22;422;51.280;7.236;2023-04-19T16:12:12;15.60;99.90
871;DHT22;422;51.280;7.236;2023-04-19T16:14:41;15.70;99.90
871;DHT22;422;51.280;7.236;2023-04-19T16:17:08;15.70;99.90
871;DHT22;422;51.280;7.236;2023-04-19T16:19:36;15.70;99.90
871;DHT22;422;51.280;7.236;2023-04-19T16:22:03;15.50;99.90
871;DHT22;422;51.280;7.236;2023-04-19T16:24:30;15.70;99.90
871;DHT22;422;51.280;7.236;2023-04-19T16:26:58;15.70;99.90
871;DHT22;422;51.280;7.236;2023-04-19T16:29:25;15.60;99.90
871;DHT22;422;51.280;7.236;2023-04-19T16:31:54;15.50;99.90
871;DHT22;422;51.280;7.236;2023-04-19T16:34:22;15.50;99.90
871;DHT22;422;51.280;7.236;2023-04-19T16:36:51;15.40;99.90
871;DHT22;422;51.280;7.236;2023-04-19T16:39:18;15.00;99.90
871;DHT22;422;51.280;7.236;2023-04-19T16:41:45;15.10;99.90
871;DHT22;422;51.280;7.236;2023-04-19T16:44:12;14.90;99.90
871;DHT22;422;51.280;7.236;2023-04-19T16:46:41;15.00;99.90
871;DHT22;422;51.280;7.236;2023-04-19T16:49:09;14.60;99.90
871;DHT22;422;51.280;7.236;2023-04-19T16:51:37;14.40;99.90
871;DHT22;422;51.280;7.236;2023-04-19T16:54:04;14.30;99.90